Time;durP1;ratioP1;P1;durP2;ratioP2;P2;SDS_P1;SDS_P2;PMS_P1;PMS_P2;Temp;Humidity;BMP_temperature;BMP_pressure;BME280_temperature;BME280_humidity;BME280_pressure;Samples;Min_cycle;Max_cycle;Signal;HPM_P1;HPM_P2
2022/06/09 00:00:08;;;;;;;15.25;5.40;;;;;;;18.48;100.00;99537.69;4981121;28;20080;-89
2022/06/09 00:02:38;;;;;;;12.45;5.40;;;;;;;18.54;100.00;99538.63;4983015;28;20039;-91
2022/06/09 00:05:06;;;;;;;7.45;5.00;;;;;;;18.52;100.00;99551.50;4980665;28;20444;-89
2022/06/09 00:07:33;;;;;;;16.30;5.30;;;;;;;18.56;100.00;99552.63;4955165;28;20403;-88
2022/06/09 00:10:07;;;;;;;8.70;5.15;;;;;;;18.61;100.00;99558.09;4991164;28;20045;-86
2022/06/09 00:12:35;;;;;;;8.75;5.15;;;;;;;18.79;100.00;99544.50;4991359;28;20031;-86
2022/06/09 00:15:06;;;;;;;7.97;4.28;;;;;;;18.84;100.00;99541.09;4995239;28;20050;-84
2022/06/09 00:17:33;;;;;;;11.65;4.57;;;;;;;18.89;100.00;99541.22;4997271;28;20035;-87
2022/06/09 00:19:58;;;;;;;13.68;4.90;;;;;;;18.92;100.00;99554.16;4996628;28;20045;-85
2022/06/09 00:22:24;;;;;;;6.80;5.00;;;;;;;19.04;100.00;99544.19;4997599;28;20023;-85
2022/06/09 00:24:49;;;;;;;9.52;5.00;;;;;;;18.96;100.00;99545.38;4996642;28;20034;-88
2022/06/09 00:27:15;;;;;;;13.07;5.07;;;;;;;19.02;100.00;99549.00;4988315;28;20043;-92
2022/06/09 00:29:41;;;;;;;13.10;5.00;;;;;;;18.97;100.00;99549.69;4980243;28;20030;-92
2022/06/09 00:32:08;;;;;;;6.95;4.57;;;;;;;19.06;100.00;99552.78;4976674;28;20395;-94
2022/06/09 00:34:34;;;;;;;9.43;4.90;;;;;;;19.14;100.00;99556.97;4981457;28;20045;-90
2022/06/09 00:37:02;;;;;;;9.90;4.85;;;;;;;19.09;100.00;99553.13;4982868;28;20070;-88
2022/06/09 00:39:28;;;;;;;13.77;5.13;;;;;;;18.86;100.00;99560.47;4968329;28;20039;-92
2022/06/09 00:41:55;;;;;;;9.13;5.80;;;;;;;18.80;100.00;99554.19;4962387;28;20499;-94
2022/06/09 00:44:28;;;;;;;11.93;5.47;;;;;;;18.99;100.00;99561.00;4969166;28;20122;-92
2022/06/09 00:47:07;;;;;;;11.10;5.25;;;;;;;19.02;100.00;99555.16;4979306;28;20058;-91
2022/06/09 00:50:01;;;;;;;14.60;5.57;;;;;;;18.88;100.00;99556.50;4977364;28;20042;-94
2022/06/09 00:52:42;;;;;;;14.30;4.88;;;;;;;19.09;100.00;99550.44;4991453;28;20110;-89
2022/06/09 00:55:14;;;;;;;7.47;5.30;;;;;;;19.05;100.00;99552.00;4981280;28;20038;-93
2022/06/09 00:57:47;;;;;;;8.10;5.82;;;;;;;19.21;100.00;99549.59;4966369;28;20035;-87
2022/06/09 01:00:17;;;;;;;6.75;4.88;;;;;;;19.37;100.00;99554.16;4962355;29;20441;-91
2022/06/09 01:02:44;;;;;;;10.15;4.97;;;;;;;19.40;100.00;99559.91;4961985;29;20040;-90
2022/06/09 01:05:26;;;;;;;10.32;4.93;;;;;;;19.35;100.00;99561.66;4966829;28;20043;-92
2022/06/09 01:08:35;;;;;;;11.45;4.82;;;;;;;19.06;100.00;99559.00;4967018;28;20031;-92
2022/06/09 01:11:03;;;;;;;9.23;5.65;;;;;;;18.92;100.00;99568.41;4969410;29;20035;-91
2022/06/09 01:13:33;;;;;;;10.13;5.47;;;;;;;18.87;100.00;99560.25;4969669;29;20050;-92
2022/06/09 01:16:13;;;;;;;10.80;5.72;;;;;;;18.88;100.00;99558.38;4971172;28;20045;-86
2022/06/09 01:19:18;;;;;;;8.25;5.18;;;;;;;19.02;100.00;99557.84;4967656;28;20051;-91
2022/06/09 01:24:53;;;;;;;9.07;5.27;;;;;;;19.04;100.00;99558.44;5034366;23;20076;-87
2022/06/09 01:27:54;;;;;;;9.20;5.40;;;;;;;19.03;100.00;99559.47;4991056;28;20031;-93
2022/06/09 01:30:22;;;;;;;12.43;5.93;;;;;;;18.81;100.00;99555.00;4981180;28;20097;-92
2022/06/09 01:33:14;;;;;;;10.82;6.38;;;;;;;18.62;100.00;99551.69;4990191;28;20069;-91
2022/06/09 01:35:56;;;;;;;14.75;6.57;;;;;;;18.65;100.00;99559.28;4991723;28;20050;-92
2022/06/09 01:38:22;;;;;;;12.57;6.07;;;;;;;18.85;100.00;99551.63;4990432;28;20050;-93
2022/06/09 01:40:48;;;;;;;10.52;6.95;;;;;;;18.83;100.00;99559.09;4984083;28;20045;-90
2022/06/09 01:43:14;;;;;;;12.35;6.70;;;;;;;18.83;100.00;99558.25;4971321;28;20058;-87
2022/06/09 01:46:19;;;;;;;11.85;6.55;;;;;;;18.78;100.00;99550.94;4987245;28;20047;-94
2022/06/09 01:48:46;;;;;;;11.13;6.40;;;;;;;18.94;100.00;99555.53;4958350;28;20051;-92
2022/06/09 01:51:15;;;;;;;9.63;6.03;;;;;;;18.93;100.00;99543.16;4988626;28;20121;-91
2022/06/09 01:53:52;;;;;;;10.20;6.32;;;;;;;18.82;100.00;99559.34;4984560;28;20047;-92
2022/06/09 01:56:28;;;;;;;14.00;6.85;;;;;;;18.79;100.00;99563.28;4984261;28;20046;-88
2022/06/09 01:59:26;;;;;;;15.82;6.80;;;;;;;18.80;100.00;99564.94;5020034;28;20050;-92
2022/06/09 02:02:16;;;;;;;13.20;6.78;;;;;;;18.77;100.00;99564.59;4926373;29;20080;-91
2022/06/09 02:04:55;;;;;;;16.63;8.10;;;;;;;18.65;100.00;99561.97;4926390;29;20490;-90
2022/06/09 02:07:21;;;;;;;18.23;7.20;;;;;;;18.62;100.00;99562.44;4918449;29;20048;-91
2022/06/09 02:09:47;;;;;;;12.18;7.57;;;;;;;18.69;100.00;99568.50;4917031;29;20036;-92
2022/06/09 02:12:17;;;;;;;13.50;7.47;;;;;;;18.60;100.00;99561.84;4960185;28;20050;-93
2022/06/09 02:14:50;;;;;;;15.82;9.52;;;;;;;18.34;100.00;99562.31;5007110;28;20096;-92
2022/06/09 02:17:16;;;;;;;14.32;9.82;;;;;;;17.96;100.00;99563.63;5024460;28;20524;-93
2022/06/09 02:19:43;;;;;;;21.20;9.95;;;;;;;17.86;100.00;99568.78;5021956;28;20033;-93
2022/06/09 02:22:11;;;;;;;17.92;10.40;;;;;;;17.84;100.00;99559.31;5017908;28;20045;-90
2022/06/09 02:24:38;;;;;;;16.35;9.95;;;;;;;17.99;100.00;99567.72;5021718;28;20030;-90
2022/06/09 02:27:05;;;;;;;13.88;9.90;;;;;;;17.99;100.00;99563.19;5004599;28;20422;-87
2022/06/09 02:29:32;;;;;;;17.10;10.98;;;;;;;17.95;100.00;99561.19;5020517;28;20124;-93
2022/06/09 02:31:58;;;;;;;20.23;10.63;;;;;;;18.03;100.00;99563.50;5023317;28;20026;-92
2022/06/09 02:34:24;;;;;;;17.48;10.00;;;;;;;17.97;100.00;99559.09;5022768;28;20030;-89
2022/06/09 02:36:50;;;;;;;13.57;9.52;;;;;;;17.89;100.00;99565.63;5023179;28;20061;-91
2022/06/09 02:39:15;;;;;;;16.55;9.40;;;;;;;17.89;100.00;99562.94;5026276;28;20040;-92
2022/06/09 02:41:41;;;;;;;14.65;9.07;;;;;;;17.86;100.00;99562.59;5030349;28;20038;-91
2022/06/09 02:44:06;;;;;;;17.02;9.15;;;;;;;17.75;100.00;99564.22;5025955;28;20431;-93
2022/06/09 02:46:32;;;;;;;15.73;9.70;;;;;;;17.61;100.00;99559.28;5016738;28;20038;-92
2022/06/09 02:48:58;;;;;;;16.77;9.75;;;;;;;17.68;100.00;99560.81;5016746;28;20093;-92
2022/06/09 02:51:29;;;;;;;16.90;10.00;;;;;;;17.70;100.00;99557.94;5017861;28;20106;-91
2022/06/09 02:53:58;;;;;;;19.23;9.88;;;;;;;17.67;100.00;99564.53;5022557;28;20502;-91
2022/06/09 02:56:27;;;;;;;18.17;9.52;;;;;;;17.75;100.00;99558.84;5020253;28;20034;-89
2022/06/09 02:58:53;;;;;;;18.48;10.63;;;;;;;17.73;100.00;99565.50;5019135;28;20468;-89
2022/06/09 03:01:19;;;;;;;15.57;10.55;;;;;;;17.62;100.00;99567.13;5016437;28;20117;-90
2022/06/09 03:03:45;;;;;;;12.75;10.57;;;;;;;17.59;100.00;99572.94;5016528;28;20026;-92
2022/06/09 03:06:11;;;;;;;20.98;12.18;;;;;;;17.62;100.00;99572.47;5016364;28;20063;-90
2022/06/09 03:08:37;;;;;;;22.92;12.52;;;;;;;17.66;100.00;99579.00;5016291;28;20033;-90
2022/06/09 03:11:04;;;;;;;14.18;10.52;;;;;;;17.79;100.00;99573.44;5018550;28;20042;-92
2022/06/09 03:13:30;;;;;;;17.30;11.30;;;;;;;17.80;100.00;99588.44;5020991;28;20472;-90
2022/06/09 03:15:56;;;;;;;14.65;10.10;;;;;;;17.81;100.00;99586.59;5029803;28;20037;-88
2022/06/09 03:18:25;;;;;;;15.20;10.05;;;;;;;17.86;100.00;99600.94;5038407;28;20018;-88
2022/06/09 03:23:55;;;;;;;14.60;9.07;;;;;;;17.99;100.00;99599.91;4681342;26;20045;-88
2022/06/09 03:26:50;;;;;;;12.65;9.48;;;;;;;17.88;100.00;99606.88;5040620;28;20044;-89
2022/06/09 03:29:24;;;;;;;20.23;10.88;;;;;;;17.82;100.00;99613.19;5039213;28;20049;-87
2022/06/09 03:34:35;;;;;;;15.30;9.87;;;;;;;17.77;100.00;99606.84;4722789;26;20037;-89
2022/06/09 03:37:21;;;;;;;17.52;11.15;;;;;;;17.74;100.00;99602.78;5017163;28;20046;-89
2022/06/09 03:40:24;;;;;;;17.20;9.93;;;;;;;17.71;100.00;99605.09;5016853;28;20065;-88
2022/06/09 03:43:03;;;;;;;13.43;9.80;;;;;;;17.60;100.00;99598.66;5015460;28;20045;-87
2022/06/09 03:48:42;;;;;;;13.60;10.65;;;;;;;17.51;100.00;99594.66;5020991;23;20057;-88
2022/06/09 03:51:31;;;;;;;17.50;10.63;;;;;;;17.54;100.00;99591.53;5030273;28;20053;-88
2022/06/09 03:53:57;;;;;;;16.55;11.27;;;;;;;17.58;100.00;99598.09;5042965;23;20061;-88
2022/06/09 03:59:14;;;;;;;20.42;11.90;;;;;;;17.55;100.00;99588.66;2715573;23;20054;-87
2022/06/09 04:01:40;;;;;;;18.13;12.13;;;;;;;17.60;100.00;99582.59;5031928;28;20516;-88
2022/06/09 04:04:06;;;;;;;18.05;11.38;;;;;;;17.69;100.00;99589.28;5026075;28;20149;-92
2022/06/09 04:06:33;;;;;;;19.85;11.93;;;;;;;17.56;100.00;99592.16;5026017;28;20056;-92
2022/06/09 04:08:58;;;;;;;24.98;12.50;;;;;;;17.58;100.00;99594.59;5021279;28;20030;-88
2022/06/09 04:11:24;;;;;;;19.95;11.10;;;;;;;17.60;100.00;99590.63;5025146;28;20439;-89
2022/06/09 04:13:50;;;;;;;24.30;12.63;;;;;;;17.67;100.00;99599.38;5026443;28;20037;-89
2022/06/09 04:16:32;;;;;;;16.95;12.05;;;;;;;17.78;100.00;99592.41;5029624;28;20513;-90
2022/06/09 04:19:01;;;;;;;23.88;12.68;;;;;;;17.76;100.00;99594.53;5054600;23;20033;-86
2022/06/09 04:21:31;;;;;;;24.40;12.47;;;;;;;17.73;100.00;99601.13;5035861;28;20034;-91
2022/06/09 04:24:35;;;;;;;24.23;12.38;;;;;;;17.77;100.00;99591.59;5036328;28;20487;-87
2022/06/09 04:27:03;;;;;;;24.88;12.68;;;;;;;17.81;100.00;99592.78;5040167;23;20045;-91
2022/06/09 04:29:29;;;;;;;27.50;13.90;;;;;;;17.79;100.00;99591.38;5023347;28;20034;-91
2022/06/09 04:32:02;;;;;;;19.50;13.90;;;;;;;17.83;100.00;99589.88;5024672;28;20041;-87
2022/06/09 04:34:28;;;;;;;23.25;14.00;;;;;;;17.89;100.00;99589.75;5020802;28;20437;-90
2022/06/09 04:36:53;;;;;;;25.27;13.27;;;;;;;17.97;100.00;99593.94;5024433;28;20057;-86
2022/06/09 04:39:19;;;;;;;19.92;13.55;;;;;;;18.19;100.00;99594.19;5018161;28;20034;-86
2022/06/09 04:41:44;;;;;;;28.23;13.98;;;;;;;18.20;100.00;99598.47;5014350;28;20037;-87
2022/06/09 04:44:10;;;;;;;21.77;13.57;;;;;;;18.24;100.00;99613.06;5014282;28;20072;-86
2022/06/09 04:46:35;;;;;;;19.35;12.57;;;;;;;18.25;100.00;99615.53;5015582;28;20538;-85
2022/06/09 04:49:01;;;;;;;20.88;12.93;;;;;;;18.39;100.00;99619.63;5014324;28;20080;-86
2022/06/09 04:51:26;;;;;;;22.52;12.90;;;;;;;18.54;100.00;99629.88;5014602;28;20494;-87
2022/06/09 04:53:53;;;;;;;18.38;12.55;;;;;;;18.64;100.00;99624.72;5012718;28;20403;-86
2022/06/09 04:56:20;;;;;;;26.30;12.45;;;;;;;18.77;100.00;99624.47;5012867;28;20423;-87
2022/06/09 04:58:48;;;;;;;20.33;12.27;;;;;;;18.80;100.00;99629.38;5014060;28;20057;-86
2022/06/09 05:01:22;;;;;;;25.02;12.95;;;;;;;18.81;100.00;99631.00;5014738;28;20085;-88
2022/06/09 05:03:49;;;;;;;22.35;13.32;;;;;;;18.78;100.00;99631.47;5013835;28;20109;-86
2022/06/09 05:06:19;;;;;;;21.73;12.55;;;;;;;18.82;100.00;99629.97;5015287;28;20048;-86
2022/06/09 05:08:48;;;;;;;20.48;12.25;;;;;;;19.12;100.00;99628.94;5016021;28;20073;-87
2022/06/09 05:11:14;;;;;;;19.52;11.88;;;;;;;19.29;100.00;99629.81;5013764;28;20034;-88
2022/06/09 05:13:40;;;;;;;20.90;11.95;;;;;;;19.37;100.00;99632.09;5013368;28;20034;-88
2022/06/09 05:16:06;;;;;;;22.52;12.05;;;;;;;19.43;100.00;99623.09;5011995;28;20510;-87
2022/06/09 05:18:33;;;;;;;19.20;11.57;;;;;;;19.33;100.00;99639.00;4996458;28;20041;-84
2022/06/09 05:21:10;;;;;;;20.17;11.13;;;;;;;19.33;100.00;99636.31;5013733;28;20044;-85
2022/06/09 05:23:42;;;;;;;22.23;11.73;;;;;;;19.48;100.00;99633.94;5021023;28;20037;-85
2022/06/09 05:26:08;;;;;;;;;;;;;;;19.59;100.00;99644.63;5030876;28;20034;-86
2022/06/09 05:28:37;;;;;;;19.48;10.88;;;;;;;19.66;100.00;99639.09;5023133;28;19981;-88
2022/06/09 05:31:03;;;;;;;15.52;10.73;;;;;;;19.82;100.00;99643.66;5026120;28;20034;-90
2022/06/09 05:33:30;;;;;;;18.77;10.93;;;;;;;19.89;100.00;99649.72;5016117;28;20057;-88
2022/06/09 05:35:55;;;;;;;16.38;10.00;;;;;;;19.95;100.00;99645.25;5008237;28;20018;-91
2022/06/09 05:46:52;;;;;;;13.38;9.38;;;;;;;19.75;100.00;99640.34;5014279;28;20041;-86
2022/06/09 05:49:18;;;;;;;14.77;9.25;;;;;;;19.83;100.00;99642.63;5008101;28;20035;-88
2022/06/09 05:51:45;;;;;;;15.93;8.07;;;;;;;19.89;100.00;99638.13;5009333;28;20030;-84
2022/06/09 05:54:11;;;;;;;15.02;8.10;;;;;;;20.08;100.00;99643.03;5011224;28;20038;-85
2022/06/09 05:56:37;;;;;;;14.75;8.77;;;;;;;20.25;100.00;99647.59;5015781;28;20038;-83
2022/06/09 05:59:03;;;;;;;14.65;8.23;;;;;;;20.25;100.00;99648.41;5021348;28;20037;-84
2022/06/09 06:01:29;;;;;;;15.82;7.53;;;;;;;20.44;100.00;99657.06;5019551;28;20040;-89
2022/06/09 06:03:55;;;;;;;16.10;7.20;;;;;;;20.44;100.00;99657.06;5023171;28;20026;-85
2022/06/09 06:06:33;;;;;;;10.82;7.82;;;;;;;20.49;100.00;99657.13;5023658;28;20094;-85
2022/06/09 06:08:59;;;;;;;15.52;7.15;;;;;;;20.60;100.00;99659.72;5023472;28;20035;-89
2022/06/09 06:11:25;;;;;;;13.95;6.95;;;;;;;20.54;100.00;99662.59;5025031;28;20030;-92
2022/06/09 06:13:52;;;;;;;14.68;7.18;;;;;;;20.71;100.00;99668.78;5021975;28;20102;-89
2022/06/09 06:16:17;;;;;;;8.18;5.00;;;;;;;20.84;100.00;99672.97;5020297;28;20046;-88
2022/06/09 06:18:43;;;;;;;9.68;4.93;;;;;;;20.92;100.00;99676.03;5024335;28;20041;-85
2022/06/09 06:21:09;;;;;;;11.75;5.28;;;;;;;21.02;100.00;99676.16;5023826;28;20391;-90
2022/06/09 06:23:35;;;;;;;8.52;5.35;;;;;;;21.38;100.00;99680.13;5022342;28;20030;-89
2022/06/09 06:26:05;;;;;;;11.98;5.47;;;;;;;21.91;100.00;99682.03;5023698;28;20025;-91
2022/06/09 06:28:31;;;;;;;12.35;4.88;;;;;;;22.29;100.00;99691.81;5020893;28;20044;-86
2022/06/09 06:30:57;;;;;;;7.00;4.43;;;;;;;23.03;100.00;99695.28;5022448;28;20507;-88
2022/06/09 06:33:23;;;;;;;12.80;6.40;;;;;;;23.26;100.00;99695.91;5019898;28;20064;-85
2022/06/09 06:35:52;;;;;;;9.88;5.90;;;;;;;23.39;100.00;99687.28;5022136;28;20038;-87
2022/06/09 06:38:18;;;;;;;9.32;5.75;;;;;;;23.58;100.00;99688.44;5021854;28;20076;-88
2022/06/09 06:40:45;;;;;;;11.95;5.68;;;;;;;23.85;100.00;99683.63;5031305;28;20069;-90
2022/06/09 06:43:16;;;;;;;14.60;5.90;;;;;;;24.07;100.00;99692.31;5039723;28;20037;-90
2022/06/09 06:45:43;;;;;;;13.10;5.27;;;;;;;23.91;100.00;99695.25;5023092;28;20023;-90
2022/06/09 06:48:09;;;;;;;9.75;5.28;;;;;;;24.34;100.00;99702.88;5037807;28;20030;-88
2022/06/09 06:50:38;;;;;;;11.43;4.80;;;;;;;24.73;100.00;99702.28;5010797;28;20026;-88
2022/06/09 06:53:17;;;;;;;9.95;4.75;;;;;;;25.26;100.00;99708.91;5020329;28;20057;-89
2022/06/09 06:55:43;;;;;;;7.72;4.88;;;;;;;24.62;100.00;99709.66;5020200;28;20099;-90
2022/06/09 06:58:35;;;;;;;8.77;4.07;;;;;;;24.55;100.00;99706.41;5020288;28;20103;-89
2022/06/09 07:01:21;;;;;;;14.93;4.60;;;;;;;23.73;100.00;99707.41;5020794;28;20018;-88
2022/06/09 07:04:17;;;;;;;10.45;5.05;;;;;;;23.58;100.00;99712.78;5243463;23;20080;-88
2022/06/09 07:06:48;;;;;;;8.02;4.47;;;;;;;23.99;100.00;99700.97;5006935;28;20042;-92
2022/06/09 07:09:17;;;;;;;8.17;4.73;;;;;;;24.25;100.00;99698.28;5039144;28;20061;-91
2022/06/09 07:16:19;;;;;;;9.98;4.65;;;;;;;24.91;96.73;99713.41;5040651;28;20133;-89
2022/06/09 07:18:48;;;;;;;10.43;4.70;;;;;;;24.42;98.33;99715.09;5039845;28;20045;-89
2022/06/09 07:21:20;;;;;;;9.35;4.47;;;;;;;24.61;100.00;99708.00;5067663;23;20034;-87
2022/06/09 07:23:51;;;;;;;8.00;4.47;;;;;;;25.06;97.72;99710.63;5035320;28;20093;-83
2022/06/09 07:26:29;;;;;;;9.57;4.15;;;;;;;25.31;92.31;99717.03;5076651;23;20074;-91
2022/06/09 07:29:08;;;;;;;5.68;2.97;;;;;;;25.32;91.30;99715.97;5027708;28;20026;-92
2022/06/09 07:31:34;;;;;;;10.32;4.20;;;;;;;24.88;92.76;99724.78;5045377;23;20049;-89
2022/06/09 07:34:05;;;;;;;6.63;4.28;;;;;;;25.11;92.91;99724.19;5021005;28;20030;-88
2022/06/09 07:36:31;;;;;;;8.48;4.47;;;;;;;25.59;91.07;99729.94;5028187;28;20028;-85
2022/06/09 07:38:58;;;;;;;8.95;4.20;;;;;;;25.03;89.86;99732.88;5027175;28;20104;-82
2022/06/09 07:41:33;;;;;;;7.55;3.55;;;;;;;24.89;89.02;99728.31;5025806;28;20042;-83
2022/06/09 07:44:10;;;;;;;10.45;4.13;;;;;;;25.38;90.56;99731.13;5034391;28;20037;-83
2022/06/09 07:46:36;;;;;;;11.68;3.38;;;;;;;26.14;85.06;99740.47;5033611;28;20042;-88
2022/06/09 07:49:23;;;;;;;13.80;3.60;;;;;;;26.70;84.34;99742.75;5024795;28;20038;-81
2022/06/09 07:51:52;;;;;;;10.10;4.78;;;;;;;26.29;86.25;99736.03;4995611;28;20050;-80
2022/06/09 07:54:20;;;;;;;9.45;4.00;;;;;;;26.13;87.57;99736.13;5023609;28;20416;-82
2022/06/09 07:56:52;;;;;;;6.82;3.60;;;;;;;25.74;87.60;99738.03;5027207;28;20044;-84
2022/06/09 07:59:22;;;;;;;9.20;3.70;;;;;;;26.02;84.92;99733.75;5029004;28;20044;-84
2022/06/09 08:01:50;;;;;;;7.03;3.92;;;;;;;26.53;85.05;99739.63;5025467;28;20046;-84
2022/06/09 08:04:17;;;;;;;5.03;3.72;;;;;;;26.55;82.24;99734.72;5028649;28;20030;-87
2022/06/09 08:06:48;;;;;;;4.57;3.30;;;;;;;26.34;83.54;99736.00;5023301;28;20014;-85
2022/06/09 08:09:16;;;;;;;9.80;3.35;;;;;;;26.09;85.07;99735.06;5017257;28;20046;-83
2022/06/09 08:11:45;;;;;;;6.10;2.90;;;;;;;26.75;81.10;99742.66;5019069;28;20025;-83
2022/06/09 08:14:11;;;;;;;5.43;3.00;;;;;;;27.04;78.01;99748.94;5013178;28;20167;-84
2022/06/09 08:16:43;;;;;;;7.38;3.25;;;;;;;26.87;80.15;99748.59;5002615;28;20096;-83
2022/06/09 08:19:09;;;;;;;9.48;3.20;;;;;;;26.80;79.93;99750.78;5005924;28;20137;-84
2022/06/09 08:21:36;;;;;;;5.18;3.15;;;;;;;25.94;84.94;99748.75;5002947;28;20038;-87
2022/06/09 08:24:01;;;;;;;5.25;2.47;;;;;;;26.33;80.00;99756.94;5002559;28;20047;-82
2022/06/09 08:26:27;;;;;;;4.10;1.73;;;;;;;26.89;76.45;99751.81;5002387;28;20121;-87
2022/06/09 08:28:54;;;;;;;7.28;2.17;;;;;;;26.68;78.54;99761.25;5001618;28;20057;-84
2022/06/09 08:31:20;;;;;;;11.73;3.10;;;;;;;25.46;83.49;99765.81;4998375;28;20034;-81
2022/06/09 08:33:49;;;;;;;4.25;2.92;;;;;;;24.79;86.37;99758.13;4998725;28;20042;-85
2022/06/09 08:36:15;;;;;;;9.70;2.97;;;;;;;24.96;86.53;99755.94;4997102;28;20041;-83
2022/06/09 08:38:41;;;;;;;10.15;3.35;;;;;;;25.54;85.18;99752.53;5007002;28;20388;-87
2022/06/09 08:41:57;;;;;;;7.03;2.67;;;;;;;25.72;85.63;99751.03;4997569;28;20069;-85
2022/06/09 08:44:43;;;;;;;4.30;2.50;;;;;;;26.33;81.65;99746.06;4996003;28;20038;-83
2022/06/09 08:47:29;;;;;;;9.00;2.25;;;;;;;25.94;86.38;99740.63;4999435;28;20053;-87
2022/06/09 08:50:20;;;;;;;4.07;1.75;;;;;;;26.12;78.02;99739.94;4998588;28;20399;-87
2022/06/09 08:53:04;;;;;;;5.10;2.22;;;;;;;26.26;80.19;99740.13;4998509;28;20035;-84
2022/06/09 08:55:40;;;;;;;3.60;1.70;;;;;;;26.59;76.10;99736.59;4992637;28;20070;-90
2022/06/09 08:58:15;;;;;;;3.65;1.75;;;;;;;27.38;72.38;99737.91;4994128;28;20042;-88
2022/06/09 09:09:38;;;;;;;1.25;1.10;;;;;;;28.04;56.83;99754.19;4230795;23;20041;-85
2022/06/09 09:12:32;;;;;;;3.35;1.20;;;;;;;27.82;57.14;99751.25;5018912;28;20056;-84
2022/06/09 09:15:28;;;;;;;4.47;1.17;;;;;;;28.28;57.63;99750.56;5031963;28;20042;-85
2022/06/09 09:18:28;;;;;;;2.67;1.50;;;;;;;28.14;57.62;99754.06;5031811;28;20064;-87
2022/06/09 09:21:37;;;;;;;3.00;1.58;;;;;;;28.48;57.13;99758.41;5032144;28;20108;-85
2022/06/09 09:24:23;;;;;;;1.98;1.20;;;;;;;28.64;55.86;99757.03;5032350;28;20030;-86
2022/06/09 09:27:29;;;;;;;4.68;2.65;;;;;;;28.19;58.84;99754.00;5015462;28;20065;-89
2022/06/09 09:30:24;;;;;;;4.80;1.90;;;;;;;27.30;62.50;99754.09;5033825;28;20088;-84
2022/06/09 09:33:02;;;;;;;3.65;1.73;;;;;;;27.90;60.65;99760.69;5037233;28;20026;-84
2022/06/09 09:35:47;;;;;;;1.83;1.20;;;;;;;28.45;59.62;99753.56;5014901;28;20045;-88
2022/06/09 09:41:46;;;;;;;3.40;1.80;;;;;;;28.58;56.04;99758.25;5035262;28;20399;-86
2022/06/09 09:44:24;;;;;;;2.97;1.52;;;;;;;27.93;59.72;99751.91;5014841;28;20069;-85
2022/06/09 09:58:53;;;;;;;2.80;1.55;;;;;;;26.60;66.22;99757.25;5079572;23;20081;-86
2022/06/09 10:10:39;;;;;;;6.97;2.42;;;;;;;25.31;72.96;99727.91;5304988;22;20064;-87
2022/06/09 10:13:28;;;;;;;6.57;2.05;;;;;;;25.35;70.97;99724.38;5216324;23;20049;-85
2022/06/09 10:16:20;;;;;;;6.20;2.13;;;;;;;25.63;71.41;99731.84;5030088;28;20042;-84
2022/06/09 10:19:06;;;;;;;4.75;1.52;;;;;;;25.63;69.57;99736.44;5039338;23;20041;-84
2022/06/09 10:22:12;;;;;;;4.38;1.63;;;;;;;25.66;68.50;99739.41;5031975;28;20038;-84
2022/06/09 10:24:58;;;;;;;5.65;1.90;;;;;;;25.58;70.06;99733.78;5031931;28;20050;-83
2022/06/09 10:27:40;;;;;;;2.83;1.50;;;;;;;25.86;69.64;99741.19;5032227;28;20141;-85
2022/06/09 10:31:01;;;;;;;4.68;1.75;;;;;;;25.78;69.33;99733.66;5032216;28;20033;-83
2022/06/09 10:33:38;;;;;;;3.53;2.10;;;;;;;25.37;69.35;99732.22;4960521;28;20058;-83
2022/06/09 10:36:31;;;;;;;5.88;1.80;;;;;;;25.31;70.00;99728.72;5031438;28;20050;-82
2022/06/09 10:42:45;;;;;;;5.28;2.30;;;;;;;25.14;73.97;99723.63;5036059;28;20073;-85
2022/06/09 10:45:19;;;;;;;3.35;1.77;;;;;;;24.83;76.34;99722.06;5030397;28;20046;-85
2022/06/09 10:57:42;;;;;;;4.95;2.17;;;;;;;25.50;68.94;99724.31;5035186;28;20089;-86
2022/06/09 11:00:20;;;;;;;7.30;1.63;;;;;;;25.50;68.58;99715.34;5037006;28;20121;-84
2022/06/09 11:03:26;;;;;;;5.18;1.67;;;;;;;26.35;65.72;99716.69;5036646;28;20038;-85
2022/06/09 11:06:07;;;;;;;3.47;1.60;;;;;;;26.72;63.77;99716.88;5022289;28;20113;-85
2022/06/09 11:09:10;;;;;;;4.43;1.48;;;;;;;27.22;62.94;99715.53;5035760;28;20026;-87
2022/06/09 11:12:22;;;;;;;3.08;1.50;;;;;;;26.75;65.72;99709.25;5037415;28;20080;-86
2022/06/09 11:15:32;;;;;;;4.95;1.38;;;;;;;26.72;63.05;99710.63;5032322;28;20070;-86
2022/06/09 11:18:43;;;;;;;1.88;1.10;;;;;;;26.69;63.60;99711.19;5036936;28;20021;-83
2022/06/09 11:21:12;;;;;;;1.80;1.00;;;;;;;25.86;63.62;99707.81;5036496;28;20042;-86
2022/06/09 11:23:59;;;;;;;2.58;1.15;;;;;;;26.15;63.56;99712.19;5025826;28;20023;-84
2022/06/09 11:26:48;;;;;;;3.55;1.08;;;;;;;26.77;62.79;99705.16;5031362;28;20046;-83
2022/06/09 11:29:43;;;;;;;2.80;1.00;;;;;;;26.86;63.15;99710.78;5055900;23;20109;-84
2022/06/09 11:33:03;;;;;;;3.17;0.80;;;;;;;27.31;59.85;99712.97;5037493;28;20053;-86
2022/06/09 11:35:45;;;;;;;2.83;1.10;;;;;;;27.13;61.53;99711.84;5003355;28;20038;-85
2022/06/09 11:38:35;;;;;;;5.25;1.20;;;;;;;26.62;62.58;99700.66;5034064;28;20034;-84
2022/06/09 11:41:32;;;;;;;3.85;1.48;;;;;;;26.56;62.69;99701.00;5016692;28;20031;-82
2022/06/09 11:44:37;;;;;;;9.20;3.80;;;;;;;26.45;62.21;99692.13;5016666;28;20057;-86
2022/06/09 11:47:47;;;;;;;5.60;1.85;;;;;;;26.52;61.77;99694.50;4978270;28;20038;-83
2022/06/09 11:50:47;;;;;;;2.67;1.10;;;;;;;26.49;60.03;99695.09;4975623;28;20074;-87
2022/06/09 11:53:52;;;;;;;4.78;1.92;;;;;;;26.51;60.04;99682.84;4956343;28;20087;-82
2022/06/09 12:10:03;;;;;;;2.10;1.30;;;;;;;25.99;60.24;99686.25;3481416;23;20054;-86
2022/06/09 12:12:56;;;;;;;2.20;1.58;;;;;;;26.17;59.50;99693.75;5036434;28;20032;-85
2022/06/09 12:16:24;;;;;;;2.67;1.27;;;;;;;26.07;59.32;99688.38;5036465;28;20084;-86
2022/06/09 12:19:18;;;;;;;3.58;1.10;;;;;;;25.80;60.59;99688.03;5033461;28;20152;-85
2022/06/09 12:35:52;;;;;;;1.92;1.10;;;;;;;25.76;59.65;99691.59;3779475;23;20041;-89
2022/06/09 12:44:17;;;;;;;4.25;1.00;;;;;;;25.96;58.92;99692.25;5185521;23;20057;-88
2022/06/09 12:46:56;;;;;;;3.22;0.70;;;;;;;26.16;59.42;99692.13;5024175;28;20038;-89
2022/06/09 12:49:26;;;;;;;2.92;0.90;;;;;;;26.26;59.25;99695.84;5026274;28;20057;-87
2022/06/09 12:51:53;;;;;;;2.47;1.10;;;;;;;26.11;58.86;99697.59;5050564;28;20025;-88
2022/06/09 12:54:30;;;;;;;2.17;1.20;;;;;;;26.22;56.71;99695.59;5047195;28;20103;-87
2022/06/09 12:57:19;;;;;;;2.72;1.00;;;;;;;26.19;56.73;99690.75;5030536;28;20069;-90
2022/06/09 13:00:03;;;;;;;2.42;1.48;;;;;;;26.01;58.12;99689.50;5045568;28;20037;-90
2022/06/09 13:02:38;;;;;;;6.47;1.98;;;;;;;25.99;58.34;99697.13;5053186;28;20101;-89
2022/06/09 13:05:33;;;;;;;2.67;1.25;;;;;;;25.92;56.77;99695.84;5045008;23;20018;-88
2022/06/09 13:08:33;;;;;;;2.92;1.35;;;;;;;25.79;55.03;99691.84;5045319;23;20101;-86
2022/06/09 13:14:47;;;;;;;3.38;1.00;;;;;;;25.79;56.58;99696.44;5024732;28;20452;-87
2022/06/09 13:17:19;;;;;;;2.35;0.98;;;;;;;26.00;56.70;99693.31;5020977;28;20050;-86
2022/06/09 13:20:03;;;;;;;1.67;0.80;;;;;;;26.20;57.44;99692.38;5024605;28;20065;-87
2022/06/09 13:22:38;;;;;;;7.20;1.30;;;;;;;26.24;56.65;99700.78;5022694;28;20122;-86
2022/06/09 13:25:05;;;;;;;1.58;0.85;;;;;;;26.39;56.50;99700.63;5025497;28;20033;-87
2022/06/09 13:27:35;;;;;;;4.60;0.73;;;;;;;26.42;55.81;99691.91;5020280;28;20049;-88
2022/06/09 13:30:19;;;;;;;1.80;0.80;;;;;;;26.53;56.57;99702.41;5016958;28;20048;-87
2022/06/09 13:32:47;;;;;;;1.27;0.52;;;;;;;26.52;52.09;99699.94;5040474;28;20514;-86
2022/06/09 13:35:28;;;;;;;2.38;0.98;;;;;;;26.49;52.34;99692.38;5041988;28;20033;-87
2022/06/09 13:38:18;;;;;;;3.20;0.90;;;;;;;26.32;53.11;99694.69;5043544;28;20041;-86
2022/06/09 13:40:59;;;;;;;1.80;0.60;;;;;;;26.41;53.27;99699.25;5045615;28;20048;-87
2022/06/09 13:43:51;;;;;;;1.92;0.73;;;;;;;25.73;55.02;99681.28;5044454;28;20041;-88
2022/06/09 13:46:30;;;;;;;1.60;0.60;;;;;;;25.85;55.75;99685.31;5033546;28;20042;-88
2022/06/09 13:49:06;;;;;;;1.65;0.80;;;;;;;25.78;55.26;99687.50;5027244;28;20055;-85
2022/06/09 13:52:47;;;;;;;5.15;0.70;;;;;;;25.85;54.81;99689.91;5010505;28;20046;-87
2022/06/09 13:55:31;;;;;;;1.48;0.80;;;;;;;26.01;53.82;99688.69;5023404;28;20026;-89